createdAt,value
2019-04-19T00:00:55.977Z,12.50
2019-04-19T00:03:30.374Z,12.30
2019-04-19T00:06:13.782Z,11.53
2019-04-19T00:08:58.927Z,11.70
2019-04-19T00:11:18.617Z,11.13
2019-04-19T00:13:39.058Z,11.10
2019-04-19T00:16:08.902Z,10.97
2019-04-19T00:18:46.148Z,11.80
2019-04-19T00:21:30.515Z,11.10
2019-04-19T00:23:45.730Z,12.10
2019-04-19T00:26:14.822Z,11.67
2019-04-19T00:28:51.408Z,12.70
2019-04-19T00:31:29.515Z,11.43
2019-04-19T00:33:50.989Z,11.97
2019-04-19T00:36:19.760Z,11.40
2019-04-19T00:39:05.068Z,12.73
2019-04-19T00:41:35.737Z,12.53
2019-04-19T00:44:15.270Z,11.67
2019-04-19T00:46:53.386Z,11.43
2019-04-19T00:49:16.038Z,11.70
2019-04-19T00:51:49.121Z,13.00
2019-04-19T00:54:18.085Z,11.70
2019-04-19T00:56:46.695Z,11.43
2019-04-19T00:59:14.289Z,11.60
2019-04-19T01:01:42.063Z,13.20
2019-04-19T01:04:18.330Z,12.60
2019-04-19T01:06:50.899Z,12.27
2019-04-19T01:09:29.033Z,11.90
2019-04-19T01:12:04.492Z,11.40
2019-04-19T01:14:31.257Z,12.10
2019-04-19T01:17:05.354Z,12.00
2019-04-19T01:19:21.505Z,11.43
2019-04-19T01:21:53.350Z,11.77
2019-04-19T01:24:27.474Z,11.40
2019-04-19T01:26:57.206Z,10.47
2019-04-19T01:29:26.266Z,11.40
2019-04-19T01:32:03.190Z,11.20
2019-04-19T01:34:30.591Z,12.73
2019-04-19T01:37:05.713Z,10.80
2019-04-19T01:39:46.955Z,11.23
2019-04-19T01:42:23.036Z,10.97
2019-04-19T01:44:55.852Z,11.60
2019-04-19T01:47:36.640Z,11.17
2019-04-19T01:50:03.225Z,10.43
2019-04-19T01:53:00.577Z,10.97
2019-04-19T01:55:04.822Z,10.90
2019-04-19T01:57:26.340Z,11.40
2019-04-19T01:59:59.140Z,11.10
2019-04-19T02:02:28.290Z,11.10
2019-04-19T02:05:06.219Z,11.10
2019-04-19T02:07:32.778Z,11.00
2019-04-19T02:10:13.122Z,11.60
2019-04-19T02:12:42.018Z,10.80
2019-04-19T02:15:11.132Z,11.57
2019-04-19T02:17:43.141Z,11.47
2019-04-19T02:20:11.795Z,10.30
2019-04-19T02:22:42.349Z,11.27
2019-04-19T02:25:32.166Z,11.67
2019-04-19T02:28:02.633Z,10.30
2019-04-19T02:30:49.706Z,11.20
2019-04-19T02:33:29.749Z,11.53
2019-04-19T02:36:04.480Z,10.57
2019-04-19T02:38:37.339Z,10.67
2019-04-19T02:41:10.937Z,11.00
2019-04-19T02:43:49.370Z,11.23
2019-04-19T02:46:24.380Z,10.63
2019-04-19T02:48:48.094Z,10.60
2019-04-19T02:51:24.113Z,11.10
2019-04-19T02:53:39.300Z,10.83
2019-04-19T02:56:38.041Z,11.00
2019-04-19T02:59:21.178Z,12.20
2019-04-19T03:04:37.623Z,10.80
2019-04-19T03:06:41.583Z,11.50
2019-04-19T03:09:07.244Z,10.83
2019-04-19T03:11:53.564Z,10.70
2019-04-19T03:14:20.618Z,10.67
2019-04-19T03:16:58.145Z,11.00
2019-04-19T03:19:22.448Z,12.50
2019-04-19T03:21:55.992Z,11.00
2019-04-19T03:24:30.191Z,12.90
2019-04-19T03:26:58.109Z,10.83
2019-04-19T03:29:26.866Z,10.40
2019-04-19T03:32:21.963Z,10.13
2019-04-19T03:34:52.479Z,10.47
2019-04-19T03:37:07.653Z,10.10
2019-04-19T03:39:46.001Z,12.07
2019-04-19T03:42:21.686Z,12.07
2019-04-19T03:44:51.071Z,10.57
2019-04-19T03:47:21.394Z,11.97
2019-04-19T03:49:55.416Z,11.40
2019-04-19T03:52:29.109Z,11.83
2019-04-19T03:55:00.036Z,10.37
2019-04-19T03:57:25.258Z,10.90
2019-04-19T03:59:41.438Z,11.07
2019-04-19T04:02:15.275Z,12.33
2019-04-19T04:04:48.347Z,10.30
2019-04-19T04:07:20.158Z,10.83
2019-04-19T04:09:51.618Z,9.77
2019-04-19T04:12:34.578Z,9.97
2019-04-19T04:15:23.846Z,9.57
2019-04-19T04:17:42.069Z,9.60
2019-04-19T04:20:11.708Z,11.07
2019-04-19T04:22:44.063Z,10.70
2019-04-19T04:25:20.336Z,12.17
2019-04-19T04:27:57.816Z,11.83
2019-04-19T04:30:22.846Z,11.10
2019-04-19T04:32:57.211Z,10.50
2019-04-19T04:35:30.305Z,10.07
2019-04-19T04:38:02.678Z,11.53
2019-04-19T04:40:21.082Z,10.00
2019-04-19T04:43:04.316Z,10.57
2019-04-19T04:45:49.528Z,9.50
2019-04-19T04:48:29.381Z,10.37
2019-04-19T04:51:07.452Z,10.17
2019-04-19T04:53:19.884Z,9.70
2019-04-19T04:55:57.954Z,11.10
2019-04-19T04:58:30.406Z,10.23
2019-04-19T05:01:01.703Z,10.37
2019-04-19T05:03:45.578Z,10.10
2019-04-19T05:06:19.125Z,10.30
2019-04-19T05:09:06.581Z,10.90
2019-04-19T05:11:36.479Z,9.90
2019-04-19T05:14:09.745Z,10.50
2019-04-19T05:16:46.466Z,12.03
2019-04-19T05:19:09.771Z,10.50
2019-04-19T05:21:40.065Z,12.20
2019-04-19T05:24:15.048Z,11.70
2019-04-19T05:26:49.517Z,10.20
2019-04-19T05:29:10.955Z,10.13
2019-04-19T05:31:35.972Z,13.53
2019-04-19T05:34:20.266Z,10.47
2019-04-19T05:36:51.162Z,10.03
2019-04-19T05:39:31.402Z,10.57
2019-04-19T05:41:56.454Z,11.27
2019-04-19T05:44:45.064Z,10.73
2019-04-19T05:47:06.222Z,11.20
2019-04-19T05:49:36.066Z,10.00
2019-04-19T05:52:28.771Z,9.73
2019-04-19T05:54:40.905Z,10.57
2019-04-19T05:57:33.180Z,10.77
2019-04-19T05:59:49.917Z,10.30
2019-04-19T06:02:24.490Z,10.80
2019-04-19T06:05:10.420Z,10.20
2019-04-19T06:07:30.275Z,10.33
2019-04-19T06:09:47.503Z,10.93
2019-04-19T06:12:22.944Z,10.97
2019-04-19T06:15:14.965Z,9.80
2019-04-19T06:17:35.224Z,9.03
2019-04-19T06:20:16.326Z,9.87
2019-04-19T06:22:47.755Z,10.80
2019-04-19T06:25:18.099Z,9.93
2019-04-19T06:30:38.868Z,12.20
2019-04-19T06:33:00.869Z,10.50
2019-04-19T06:35:22.560Z,10.40
2019-04-19T06:37:40.375Z,9.60
2019-04-19T06:40:17.860Z,11.43
2019-04-19T06:42:50.703Z,9.30
2019-04-19T06:45:31.512Z,10.10
2019-04-19T06:47:54.298Z,9.90
2019-04-19T06:50:24.507Z,10.30
2019-04-19T06:52:47.387Z,9.53
2019-04-19T06:55:24.746Z,8.40
2019-04-19T06:57:58.058Z,9.40
2019-04-19T07:00:30.487Z,9.60
2019-04-19T07:02:52.108Z,9.30
2019-04-19T07:05:33.827Z,11.30
2019-04-19T07:08:38.844Z,11.00
2019-04-19T07:10:51.325Z,12.63
2019-04-19T07:13:14.082Z,10.87
2019-04-19T07:15:50.027Z,12.00
2019-04-19T07:18:17.584Z,9.37
2019-04-19T07:20:44.752Z,9.53
2019-04-19T07:23:16.090Z,11.17
2019-04-19T07:25:54.011Z,9.53
2019-04-19T07:28:12.722Z,9.73
2019-04-19T07:30:37.242Z,10.50
2019-04-19T07:33:12.962Z,10.50
2019-04-19T07:36:01.924Z,9.20
2019-04-19T07:38:27.298Z,8.97
2019-04-19T07:41:03.892Z,10.00
2019-04-19T07:43:30.039Z,9.47
2019-04-19T07:46:08.283Z,10.00
2019-04-19T07:48:24.607Z,9.63
2019-04-19T07:53:33.472Z,10.20
2019-04-19T07:56:07.658Z,10.53
2019-04-19T07:58:52.073Z,11.27
2019-04-19T08:01:37.133Z,9.97
2019-04-19T08:04:21.933Z,12.20
2019-04-19T08:06:53.875Z,8.50
2019-04-19T08:09:22.387Z,10.40
2019-04-19T08:11:58.160Z,11.07
2019-04-19T08:14:34.415Z,10.20
2019-04-19T08:29:31.099Z,9.93
2019-04-19T08:31:52.783Z,9.00
2019-04-19T08:34:24.815Z,10.60
2019-04-19T08:36:59.760Z,10.33
2019-04-19T08:40:04.940Z,10.00
2019-04-19T08:42:34.513Z,10.70
2019-04-19T08:44:56.407Z,9.30
2019-04-19T08:47:43.207Z,10.00
2019-04-19T08:50:13.450Z,9.73
2019-04-19T08:52:41.719Z,10.17
2019-04-19T08:55:30.409Z,10.20
2019-04-19T08:57:49.535Z,10.30
2019-04-19T09:00:49.923Z,10.47
2019-04-19T09:03:01.471Z,9.40
2019-04-19T09:05:30.786Z,10.50
2019-04-19T09:08:05.118Z,9.23
2019-04-19T09:10:41.906Z,10.17
2019-04-19T09:13:22.652Z,10.67
2019-04-19T09:15:35.176Z,10.00
2019-04-19T09:20:44.090Z,10.80
2019-04-19T09:23:28.447Z,11.27
2019-04-19T09:26:03.525Z,10.47
2019-04-19T09:31:09.557Z,9.87
2019-04-19T09:33:31.039Z,11.30
2019-04-19T09:36:19.061Z,10.50
2019-04-19T09:39:07.074Z,12.00
2019-04-19T09:41:28.059Z,10.67
2019-04-19T09:44:21.802Z,11.23
2019-04-19T09:46:40.566Z,10.90
2019-04-19T09:49:23.247Z,10.73
2019-04-19T09:51:57.707Z,10.40
2019-04-19T09:54:35.817Z,9.70
2019-04-19T09:56:58.058Z,10.27
2019-04-19T09:59:24.173Z,10.13
2019-04-19T10:01:52.251Z,10.87
2019-04-19T10:04:18.846Z,10.67
2019-04-19T10:06:49.038Z,11.03
2019-04-19T10:09:22.208Z,10.47
2019-04-19T10:11:50.883Z,10.50
2019-04-19T10:14:21.451Z,10.90
2019-04-19T10:16:52.756Z,11.83
2019-04-19T10:19:22.639Z,10.63
2019-04-19T10:21:54.123Z,11.50
2019-04-19T10:24:24.668Z,11.07
2019-04-19T10:27:05.574Z,11.23
2019-04-19T10:29:38.487Z,10.50
2019-04-19T10:32:22.330Z,11.70
2019-04-19T10:34:52.538Z,11.47
2019-04-19T10:37:24.373Z,10.80
2019-04-19T10:39:55.223Z,11.43
2019-04-19T10:42:25.287Z,11.83
2019-04-19T10:44:56.147Z,11.77
2019-04-19T10:47:28.973Z,12.60
2019-04-19T10:50:11.928Z,11.53
2019-04-19T10:52:29.253Z,11.47
2019-04-19T10:54:59.505Z,12.10
2019-04-19T10:57:29.915Z,12.10
2019-04-19T11:00:02.833Z,12.00
2019-04-19T11:02:34.407Z,11.10
2019-04-19T11:05:07.283Z,11.10
2019-04-19T11:07:39.576Z,12.43
2019-04-19T11:10:09.692Z,11.90
2019-04-19T11:12:40.638Z,12.50
2019-04-19T11:15:10.861Z,11.70
2019-04-19T11:17:41.437Z,11.20
2019-04-19T11:20:23.906Z,11.27
2019-04-19T11:22:43.798Z,11.73
2019-04-19T11:25:14.409Z,11.03
2019-04-19T11:27:44.858Z,10.97
2019-04-19T11:30:16.998Z,11.00
2019-04-19T11:32:48.708Z,11.20
2019-04-19T11:35:19.359Z,10.00
2019-04-19T11:37:49.281Z,9.57
2019-04-19T11:40:19.574Z,10.53
2019-04-19T11:42:49.187Z,9.50
2019-04-19T11:45:19.795Z,10.57
2019-04-19T11:47:49.448Z,9.23
2019-04-19T11:50:19.888Z,9.63
2019-04-19T11:53:08.262Z,8.27
2019-04-19T11:55:40.560Z,8.70
2019-04-19T11:58:10.539Z,8.97
2019-04-19T12:00:43.282Z,9.40
2019-04-19T12:03:16.027Z,9.27
2019-04-19T12:05:46.274Z,9.00
2019-04-19T12:08:16.055Z,9.70
2019-04-19T12:10:46.436Z,9.83
2019-04-19T12:13:17.254Z,9.00
2019-04-19T12:15:49.100Z,9.80
2019-04-19T12:18:18.187Z,10.17
2019-04-19T12:20:49.454Z,10.17
2019-04-19T12:23:20.055Z,10.97
2019-04-19T12:25:51.268Z,8.80
2019-04-19T12:28:21.705Z,10.10
2019-04-19T12:30:53.861Z,9.80
2019-04-19T12:33:23.632Z,10.13
2019-04-19T12:35:53.302Z,10.27
2019-04-19T12:38:24.082Z,10.40
2019-04-19T12:41:01.742Z,10.10
2019-04-19T12:43:32.035Z,10.90
2019-04-19T12:46:02.917Z,10.50
2019-04-19T12:48:33.122Z,10.40
2019-04-19T12:51:03.631Z,10.80
2019-04-19T12:53:34.651Z,10.43
2019-04-19T12:56:04.594Z,10.13
2019-04-19T12:58:34.117Z,11.73
2019-04-19T13:01:14.582Z,11.03
2019-04-19T13:04:02.383Z,9.30
2019-04-19T13:06:33.792Z,10.20
2019-04-19T13:09:05.368Z,9.70
2019-04-19T13:11:35.000Z,7.97
2019-04-19T13:14:05.769Z,9.23
2019-04-19T13:16:36.583Z,8.70
2019-04-19T13:19:08.006Z,10.43
2019-04-19T13:21:38.630Z,8.83
2019-04-19T13:24:08.858Z,8.60
2019-04-19T13:26:39.027Z,9.20
2019-04-19T13:29:09.415Z,8.47
2019-04-19T13:31:40.759Z,8.60
2019-04-19T13:34:11.652Z,8.00
2019-04-19T13:36:49.111Z,10.07
2019-04-19T13:39:21.364Z,8.43
2019-04-19T13:41:52.933Z,8.10
2019-04-19T13:44:22.965Z,7.70
2019-04-19T13:46:52.884Z,8.00
2019-04-19T13:49:22.554Z,7.90
2019-04-19T13:51:52.544Z,7.93
2019-04-19T13:54:22.875Z,8.10
2019-04-19T13:56:52.837Z,8.27
2019-04-19T13:59:37.694Z,8.30
2019-04-19T14:01:54.495Z,7.97
2019-04-19T14:04:24.200Z,8.07
2019-04-19T14:06:54.153Z,7.23
2019-04-19T14:09:25.177Z,7.60
2019-04-19T14:11:55.250Z,7.27
2019-04-19T14:14:25.782Z,7.27
2019-04-19T14:16:55.756Z,7.27
2019-04-19T14:19:26.857Z,7.40
2019-04-19T14:21:57.257Z,7.43
2019-04-19T14:24:27.375Z,7.53
2019-04-19T14:26:59.126Z,7.50
2019-04-19T14:29:29.652Z,7.23
2019-04-19T14:31:59.595Z,8.13
2019-04-19T14:34:29.252Z,7.93
2019-04-19T14:37:00.168Z,8.10
2019-04-19T14:39:30.883Z,8.03
2019-04-19T14:42:01.405Z,8.33
2019-04-19T14:44:31.544Z,7.57
2019-04-19T14:47:01.268Z,8.00
2019-04-19T14:49:31.078Z,8.53
2019-04-19T14:52:02.032Z,7.87
2019-04-19T14:54:32.263Z,8.33
2019-04-19T14:57:02.922Z,9.47
2019-04-19T14:59:33.209Z,8.87
2019-04-19T15:02:05.013Z,9.10
2019-04-19T15:04:48.893Z,9.27
2019-04-19T15:07:18.699Z,10.67
2019-04-19T15:09:48.404Z,10.30
2019-04-19T15:12:18.586Z,10.60
2019-04-19T15:14:49.194Z,9.90
2019-04-19T15:17:19.514Z,10.20
2019-04-19T15:19:49.313Z,9.00
2019-04-19T15:22:19.935Z,8.80
2019-04-19T15:24:50.818Z,10.50
2019-04-19T15:27:21.027Z,9.27
2019-04-19T15:29:50.810Z,11.00
2019-04-19T15:32:20.473Z,9.97
2019-04-19T15:34:57.887Z,11.20
2019-04-19T15:37:27.680Z,10.40
2019-04-19T15:39:58.541Z,9.50
2019-04-19T15:42:28.873Z,9.80
2019-04-19T15:44:58.746Z,9.83
2019-04-19T15:47:28.626Z,10.30
2019-04-19T15:49:58.237Z,10.73
2019-04-19T15:52:28.237Z,10.27
2019-04-19T15:54:57.845Z,9.33
2019-04-19T15:57:28.105Z,11.13
2019-04-19T15:59:58.074Z,10.43
2019-04-19T16:02:29.836Z,10.60
2019-04-19T16:05:17.886Z,9.47
2019-04-19T16:07:58.242Z,11.40
2019-04-19T16:10:32.823Z,11.13
2019-04-19T16:13:03.565Z,11.37
2019-04-19T16:15:34.084Z,10.57
2019-04-19T16:18:04.128Z,10.87
2019-04-19T16:20:33.837Z,9.90
2019-04-19T16:23:03.420Z,9.57
2019-04-19T16:25:33.924Z,10.40
2019-04-19T16:28:03.631Z,9.70
2019-04-19T16:30:34.480Z,9.53
2019-04-19T16:33:04.286Z,10.70
2019-04-19T16:35:34.376Z,10.07
2019-04-19T16:38:05.724Z,11.03
2019-04-19T16:40:36.412Z,9.17
2019-04-19T16:43:06.112Z,9.30
2019-04-19T16:45:35.771Z,10.43
2019-04-19T16:48:07.751Z,11.43
2019-04-19T16:50:36.636Z,9.50
2019-04-19T16:53:07.738Z,10.87
2019-04-19T16:55:37.714Z,10.90
2019-04-19T16:58:08.510Z,12.27
2019-04-19T17:00:42.769Z,9.90
2019-04-19T17:03:14.072Z,11.03
2019-04-19T17:05:44.643Z,10.97
2019-04-19T17:08:15.569Z,11.13
2019-04-19T17:10:45.443Z,9.90
2019-04-19T17:13:15.060Z,10.30
2019-04-19T17:16:02.136Z,11.37
2019-04-19T17:18:34.561Z,10.40
2019-04-19T17:21:10.092Z,11.00
2019-04-19T17:23:40.546Z,11.20
2019-04-19T17:26:10.944Z,10.40
2019-04-19T17:28:40.995Z,10.80
2019-04-19T17:31:11.870Z,10.00
2019-04-19T17:33:42.109Z,10.83
2019-04-19T17:36:12.417Z,10.57
2019-04-19T17:38:46.941Z,12.60
2019-04-19T17:41:14.540Z,11.70
2019-04-19T17:43:45.445Z,11.77
2019-04-19T17:46:15.657Z,12.17
2019-04-19T17:48:46.487Z,12.63
2019-04-19T17:51:16.100Z,11.63
2019-04-19T17:53:49.071Z,11.20
2019-04-19T17:56:17.363Z,11.80
2019-04-19T17:58:48.458Z,11.63
2019-04-19T18:01:18.143Z,12.77
2019-04-19T18:03:48.997Z,12.00
2019-04-19T18:06:18.726Z,12.10
2019-04-19T18:08:49.081Z,11.73
2019-04-19T18:11:23.921Z,12.60
2019-04-19T18:13:50.991Z,10.30
2019-04-19T18:16:20.715Z,11.60
2019-04-19T18:18:52.660Z,12.07
2019-04-19T18:21:24.815Z,11.87
2019-04-19T18:24:06.159Z,12.00
2019-04-19T18:26:30.596Z,11.70
2019-04-19T18:28:58.785Z,12.63
2019-04-19T18:31:36.167Z,11.20
2019-04-19T18:34:06.762Z,12.30
2019-04-19T18:36:32.595Z,12.17
2019-04-19T18:39:02.816Z,11.90
2019-04-19T18:41:33.529Z,12.00
2019-04-19T18:44:13.198Z,12.00
2019-04-19T18:46:35.240Z,12.40
2019-04-19T18:49:07.567Z,14.07
2019-04-19T18:51:42.080Z,11.77
2019-04-19T18:54:13.357Z,12.33
2019-04-19T18:56:40.250Z,12.03
2019-04-19T18:59:16.808Z,11.87
2019-04-19T19:01:42.891Z,13.30
2019-04-19T19:04:18.461Z,12.10
2019-04-19T19:06:45.591Z,11.90
2019-04-19T19:09:16.594Z,12.03
2019-04-19T19:11:50.249Z,12.40
2019-04-19T19:14:21.015Z,12.97
2019-04-19T19:16:51.281Z,12.07
2019-04-19T19:19:26.665Z,12.07
2019-04-19T19:21:53.311Z,12.03
2019-04-19T19:24:46.330Z,12.53
2019-04-19T19:27:05.277Z,12.20
2019-04-19T19:29:25.911Z,12.00
2019-04-19T19:32:02.660Z,12.53
2019-04-19T19:34:31.303Z,11.50
2019-04-19T19:37:00.984Z,11.70
2019-04-19T19:39:35.210Z,11.90
2019-04-19T19:44:42.594Z,12.07
2019-04-19T19:47:49.289Z,12.90
2019-04-19T19:50:22.663Z,12.50
2019-04-19T19:52:44.270Z,12.83
2019-04-19T19:55:15.610Z,12.83
2019-04-19T19:57:40.619Z,12.70
2019-04-19T20:00:09.004Z,13.50
2019-04-19T20:02:45.509Z,12.00
2019-04-19T20:05:05.193Z,11.97
2019-04-19T20:07:39.638Z,12.30
2019-04-19T20:10:10.572Z,11.60
2019-04-19T20:12:43.354Z,12.93
2019-04-19T20:15:13.507Z,13.20
2019-04-19T20:17:48.138Z,11.53
2019-04-19T20:20:16.364Z,12.57
2019-04-19T20:22:48.570Z,13.50
2019-04-19T20:25:28.829Z,12.43
2019-04-19T20:27:52.076Z,12.30
2019-04-19T20:30:21.494Z,13.50
2019-04-19T20:32:55.793Z,13.60
2019-04-19T20:35:24.641Z,12.80
2019-04-19T20:37:57.434Z,12.97
2019-04-19T20:40:27.580Z,12.37
2019-04-19T20:43:16.261Z,14.47
2019-04-19T20:45:36.589Z,13.67
2019-04-19T20:48:07.591Z,11.47
2019-04-19T20:50:42.561Z,12.27
2019-04-19T20:53:18.274Z,12.43
2019-04-19T20:56:10.225Z,10.90
2019-04-19T20:58:24.066Z,12.07
2019-04-19T21:00:44.081Z,11.10
2019-04-19T21:03:16.568Z,13.73
2019-04-19T21:05:49.358Z,13.23
2019-04-19T21:08:20.744Z,10.97
2019-04-19T21:10:56.048Z,12.80
2019-04-19T21:13:21.237Z,11.53
2019-04-19T21:15:51.844Z,12.73
2019-04-19T21:18:25.602Z,11.53
2019-04-19T21:20:55.723Z,11.20
2019-04-19T21:23:27.897Z,12.40
2019-04-19T21:26:00.443Z,11.40
2019-04-19T21:28:34.992Z,11.23
2019-04-19T21:31:02.422Z,10.80
2019-04-19T21:33:30.888Z,11.63
2019-04-19T21:36:04.675Z,11.47
2019-04-19T21:38:31.819Z,10.80
2019-04-19T21:41:12.311Z,12.07
2019-04-19T21:43:36.902Z,12.47
2019-04-19T21:46:05.521Z,13.07
2019-04-19T21:48:38.477Z,11.23
2019-04-19T21:51:11.862Z,11.13
2019-04-19T21:53:41.007Z,11.10
2019-04-19T21:56:14.493Z,11.30
2019-04-19T21:58:46.488Z,13.03
2019-04-19T22:01:16.050Z,12.80
2019-04-19T22:03:44.301Z,12.63
2019-04-19T22:06:21.090Z,12.87
2019-04-19T22:08:46.048Z,10.97
2019-04-19T22:11:16.339Z,11.10
2019-04-19T22:13:50.383Z,11.73
2019-04-19T22:16:21.634Z,11.43
2019-04-19T22:18:52.899Z,11.07
2019-04-19T22:21:20.827Z,11.03
2019-04-19T22:23:53.366Z,10.63
2019-04-19T22:26:29.878Z,12.40
2019-04-19T22:28:53.459Z,11.13
2019-04-19T22:31:27.576Z,12.70
2019-04-19T22:33:54.629Z,12.17
2019-04-19T22:36:24.228Z,12.57
2019-04-19T22:38:58.557Z,11.67
2019-04-19T22:41:26.848Z,11.13
2019-04-19T22:43:56.503Z,11.27
2019-04-19T22:46:26.081Z,12.00
2019-04-19T22:49:00.155Z,12.43
2019-04-19T22:51:30.812Z,10.87
2019-04-19T22:54:00.917Z,11.83
2019-04-19T22:56:36.589Z,11.33
2019-04-19T22:59:07.278Z,11.30
2019-04-19T23:01:56.391Z,12.23
2019-04-19T23:04:24.723Z,12.00
2019-04-19T23:06:58.864Z,11.17
2019-04-19T23:09:24.925Z,12.43
2019-04-19T23:11:55.479Z,11.93
2019-04-19T23:14:41.913Z,10.77
2019-04-19T23:17:10.478Z,12.03
2019-04-19T23:19:46.169Z,11.23
2019-04-19T23:22:14.367Z,11.93
2019-04-19T23:24:50.031Z,10.87
2019-04-19T23:27:29.008Z,10.77
2019-04-19T23:29:46.573Z,10.40
2019-04-19T23:32:23.934Z,11.17
2019-04-19T23:34:51.598Z,11.33
2019-04-19T23:37:19.617Z,11.00
2019-04-19T23:39:52.686Z,12.57
2019-04-19T23:42:20.798Z,11.87
2019-04-19T23:44:56.415Z,12.00
2019-04-19T23:47:22.406Z,11.43
2019-04-19T23:49:54.541Z,11.40
2019-04-19T23:52:23.440Z,10.57
2019-04-19T23:54:54.471Z,10.40
2019-04-19T23:57:31.548Z,10.80
